Emerson, North Carolina
Current Conditions -  °F | °C
As of 6:55 PM on Sunday 23 Nov 2014 (Local Time) from KEYF Reporting Station
Overcast Overcast  
Wind Chill: 64°   Ceiling: 2100
Heat Index: 64°   Visibility: 7mi
Dew Point: 64°   Wind: 8mph
Humidity: 97%   Direction: 130°SE
Pressure: 29.92"   Gusts: NA
Location:  34.5012°N, 78.612°W
Report Text: KEYF 232355Z AUTO 13007KT 7SM SCT014 BKN021 OVC055 18/18 A2992 RMK AO2 60011 T01800175 10180 20135
Loading
Personal Weather Stations






























Interactive Weather Map New forecast layout! Learn more

10-Day Weather Forecast

Advertisements
Track Severe Weather on mobile